Time;durP1;ratioP1;P1;durP2;ratioP2;P2;SDS_P1;SDS_P2;PMS_P1;PMS_P2;Temp;Humidity;BMP_temperature;BMP_pressure;BME280_temperature;BME280_humidity;BME280_pressure;Samples;Min_cycle;Max_cycle;Signal;HPM_P1;HPM_P2
2021/11/12 13:22:44;;;;;;;19.38;12.98;;;16.30;99.90;;;;;;5075514;28;20485;-88
2021/11/12 13:25:22;;;;;;;21.85;13.15;;;16.30;99.90;;;;;;5073912;28;20032;-88
2021/11/12 13:27:47;;;;;;;19.58;10.85;;;16.30;99.90;;;;;;5074845;28;20103;-86
2021/11/12 13:30:26;;;;;;;21.73;9.73;;;16.40;99.90;;;;;;5057048;28;20226;-86
2021/11/12 13:32:52;;;;;;;18.55;9.77;;;16.30;99.90;;;;;;5075330;28;20028;-86
2021/11/12 13:35:31;;;;;;;19.05;9.95;;;16.10;99.90;;;;;;5074905;28;20026;-86
2021/11/12 13:37:57;;;;;;;18.90;9.95;;;16.10;99.90;;;;;;5074325;28;20103;-87
2021/11/12 13:40:23;;;;;;;16.73;10.27;;;16.40;99.90;;;;;;5057137;28;20178;-86
2021/11/12 13:42:50;;;;;;;16.02;8.90;;;16.50;99.90;;;;;;5074597;28;20028;-86
2021/11/12 13:45:26;;;;;;;15.23;9.45;;;16.60;99.90;;;;;;5055795;28;20050;-85
2021/11/12 13:48:13;;;;;;;15.63;9.60;;;16.60;99.90;;;;;;5075464;28;20025;-84
2021/11/12 13:50:50;;;;;;;19.65;10.15;;;16.50;99.90;;;;;;5055201;28;20031;-85
2021/11/12 13:53:17;;;;;;;17.65;12.25;;;16.40;99.90;;;;;;5074763;28;20012;-85
2021/11/12 13:55:45;;;;;;;29.10;10.90;;;16.20;99.90;;;;;;5071729;28;20021;-85
2021/11/12 13:58:11;;;;;;;21.95;9.32;;;16.10;99.90;;;;;;5062250;28;20032;-85
2021/11/12 14:00:38;;;;;;;15.02;7.10;;;16.10;99.90;;;;;;5061197;28;20010;-85
2021/11/12 14:03:07;;;;;;;11.32;6.75;;;16.10;99.90;;;;;;5062336;28;20081;-85
2021/11/12 14:05:35;;;;;;;11.32;7.47;;;16.00;99.90;;;;;;5061682;28;20120;-85
2021/11/12 14:08:02;;;;;;;17.75;8.68;;;15.90;99.90;;;;;;5059730;28;20020;-85
2021/11/12 14:10:35;;;;;;;13.77;7.10;;;15.90;99.90;;;;;;5061338;28;20028;-85
2021/11/12 14:13:03;;;;;;;14.75;7.95;;;16.10;99.90;;;;;;5067462;28;20108;-85
2021/11/12 14:15:31;;;;;;;18.67;12.68;;;16.30;99.90;;;;;;5062024;28;20501;-85
2021/11/12 14:29:15;;;;;;;10.85;6.35;;;16.30;99.90;;;;;;5061566;28;20025;-85
2021/11/12 14:36:57;;;;;;;11.02;6.88;;;16.10;99.90;;;;;;5060190;28;20505;-85
2021/11/12 14:45:03;;;;;;;13.55;7.40;;;15.80;99.90;;;;;;5060922;28;20509;-85
2021/11/12 14:47:56;;;;;;;10.50;6.60;;;15.60;99.90;;;;;;5060898;28;20021;-85
2021/11/12 14:50:36;;;;;;;16.02;7.45;;;15.60;99.90;;;;;;5059911;28;20082;-85
2021/11/12 14:53:06;;;;;;;13.50;7.60;;;15.40;99.90;;;;;;5058740;28;20036;-85
2021/11/12 14:55:33;;;;;;;10.43;7.45;;;15.50;99.90;;;;;;5058479;28;20428;-85
2021/11/12 14:57:59;;;;;;;12.60;8.30;;;15.50;99.90;;;;;;5059707;28;20035;-85
2021/11/12 15:00:27;;;;;;;17.23;8.50;;;15.50;99.90;;;;;;5059729;28;20021;-85
2021/11/12 15:02:53;;;;;;;13.40;7.70;;;15.50;99.90;;;;;;5059891;28;20115;-85
2021/11/12 15:05:21;;;;;;;11.05;8.38;;;15.50;99.90;;;;;;5060379;28;20573;-86
2021/11/12 15:08:04;;;;;;;18.38;8.10;;;15.40;99.90;;;;;;5059877;28;20108;-85
2021/11/12 15:10:30;;;;;;;11.15;7.80;;;15.30;99.90;;;;;;5060345;28;20013;-85
2021/11/12 15:12:57;;;;;;;14.30;8.63;;;15.30;99.90;;;;;;5060442;28;20025;-86
2021/11/12 15:15:23;;;;;;;13.10;8.75;;;15.20;99.90;;;;;;5042267;28;20040;-85
2021/11/12 15:17:51;;;;;;;14.25;8.40;;;15.10;99.90;;;;;;5059852;28;20017;-85
2021/11/12 15:20:17;;;;;;;14.10;8.43;;;15.10;99.90;;;;;;5059704;28;20100;-86
2021/11/12 15:26:06;;;;;;;11.88;7.65;;;15.10;99.90;;;;;;5059530;28;20116;-85
2021/11/12 15:33:27;;;;;;;14.10;8.27;;;15.10;99.90;;;;;;5061265;28;20401;-85
2021/11/12 15:35:55;;;;;;;12.90;8.18;;;15.10;99.90;;;;;;5060258;28;20020;-85
2021/11/12 15:38:33;;;;;;;13.52;7.80;;;15.10;99.90;;;;;;5057914;28;20494;-85
2021/11/12 15:41:12;;;;;;;14.20;8.57;;;15.00;99.90;;;;;;5042277;28;20025;-86
2021/11/12 15:46:27;;;;;;;16.17;8.52;;;14.90;99.90;;;;;;5059947;28;20087;-86
2021/11/12 15:48:53;;;;;;;15.63;8.18;;;14.80;99.90;;;;;;5041647;28;20431;-86
2021/11/12 15:59:11;;;;;;;17.13;8.88;;;14.60;99.90;;;;;;5057511;28;20029;-86
2021/11/12 16:25:35;;;;;;;12.05;9.02;;;14.30;99.90;;;;;;5059500;28;20052;-88
2021/11/12 16:28:03;;;;;;;12.57;7.78;;;14.30;99.90;;;;;;5058616;28;20051;-88
2021/11/12 16:30:32;;;;;;;12.68;7.90;;;14.30;99.90;;;;;;5061854;28;20027;-88
2021/11/12 16:33:00;;;;;;;11.60;7.85;;;14.30;99.90;;;;;;5059451;28;20043;-88
2021/11/12 16:35:28;;;;;;;11.77;7.80;;;14.30;99.90;;;;;;5040233;28;20032;-88
2021/11/12 16:37:58;;;;;;;12.15;8.32;;;14.30;99.90;;;;;;5038634;28;20021;-90
2021/11/12 16:40:31;;;;;;;14.13;8.35;;;14.30;99.90;;;;;;5059991;28;20025;-88
2021/11/12 16:59:23;;;;;;;13.95;8.10;;;14.20;99.90;;;;;;5059537;28;20070;-92
2021/11/12 17:09:53;;;;;;;18.23;8.75;;;14.10;99.90;;;;;;5059474;28;19962;-81
2021/11/12 17:12:31;;;;;;;16.40;9.38;;;14.00;99.90;;;;;;5056740;28;20025;-81
2021/11/12 17:20:19;;;;;;;14.10;10.05;;;14.00;99.90;;;;;;5058120;28;20394;-82
2021/11/12 17:47:10;;;;;;;18.23;10.75;;;14.20;99.90;;;;;;5061905;28;20032;-81
2021/11/12 18:05:22;;;;;;;13.93;7.90;;;14.10;99.90;;;;;;5061699;28;20071;-81
2021/11/12 21:45:37;;;;;;;19.45;8.05;;;14.30;99.90;;;;;;5053266;28;20064;-81
2021/11/12 21:48:03;;;;;;;11.73;7.25;;;14.40;99.90;;;;;;5055879;28;20032;-81
2021/11/12 21:50:32;;;;;;;13.52;7.13;;;14.40;99.90;;;;;;5053870;28;20025;-82
2021/11/12 21:52:58;;;;;;;11.70;7.18;;;14.40;99.90;;;;;;5061552;28;20027;-82
2021/11/12 21:55:24;;;;;;;12.70;6.80;;;14.40;99.90;;;;;;5056503;28;20096;-83
2021/11/12 21:57:50;;;;;;;15.38;6.55;;;14.30;99.90;;;;;;5054881;28;20060;-82
2021/11/12 22:00:16;;;;;;;13.10;6.30;;;14.40;99.90;;;;;;5053347;28;20061;-82
2021/11/12 22:02:43;;;;;;;12.20;6.97;;;14.30;99.90;;;;;;5055692;28;20051;-83
2021/11/12 22:05:09;;;;;;;10.68;4.40;;;14.30;99.90;;;;;;5055937;28;20124;-82
2021/11/12 22:07:36;;;;;;;11.93;4.00;;;14.40;99.90;;;;;;5054530;28;20053;-82
2021/11/12 22:10:05;;;;;;;13.30;4.60;;;14.40;99.90;;;;;;5058380;28;20028;-82
2021/11/12 22:12:30;;;;;;;9.57;4.25;;;14.50;99.90;;;;;;5054241;28;20048;-82
2021/11/12 22:14:56;;;;;;;13.90;4.57;;;14.50;99.90;;;;;;5052915;28;20535;-82
2021/11/12 22:17:22;;;;;;;14.85;4.68;;;14.50;99.90;;;;;;5052157;28;20478;-82
2021/11/12 22:19:48;;;;;;;12.05;4.82;;;14.40;99.90;;;;;;5056687;28;20446;-83
2021/11/12 22:22:14;;;;;;;12.63;6.53;;;14.40;99.90;;;;;;5056120;28;20025;-82
2021/11/12 22:24:39;;;;;;;21.23;7.82;;;14.30;99.90;;;;;;5056181;28;20288;-82
2021/11/12 22:27:05;;;;;;;15.93;8.73;;;14.30;99.90;;;;;;5054264;28;20432;-82
2021/11/12 22:29:31;;;;;;;14.52;6.25;;;14.20;99.90;;;;;;5052263;28;20025;-82
2021/11/12 22:31:57;;;;;;;13.23;5.00;;;14.20;99.90;;;;;;5053248;28;20108;-82
2021/11/12 22:34:23;;;;;;;10.43;4.30;;;14.10;99.90;;;;;;5057421;28;20092;-82
2021/11/12 22:36:49;;;;;;;10.57;4.18;;;13.90;99.90;;;;;;5053046;28;20028;-82
2021/11/12 22:39:17;;;;;;;8.27;3.00;;;13.90;99.90;;;;;;5055013;28;20029;-83
2021/11/12 22:41:46;;;;;;;6.35;1.60;;;13.90;99.90;;;;;;5054128;28;20025;-83
2021/11/12 22:44:12;;;;;;;6.30;2.10;;;13.80;99.90;;;;;;5052165;28;20048;-83
2021/11/12 22:46:38;;;;;;;5.80;2.20;;;13.80;99.90;;;;;;5054610;28;20025;-82
2021/11/12 22:49:09;;;;;;;7.57;2.20;;;13.80;99.90;;;;;;5055761;28;20021;-83
2021/11/12 22:51:35;;;;;;;4.72;1.40;;;13.70;99.90;;;;;;5056688;28;20229;-83
2021/11/12 22:54:01;;;;;;;8.35;1.83;;;13.70;99.90;;;;;;5056114;28;20021;-82
2021/11/12 22:56:28;;;;;;;4.43;1.42;;;13.70;99.90;;;;;;5055442;28;20021;-83
2021/11/12 22:58:54;;;;;;;11.18;2.15;;;13.70;99.90;;;;;;5056875;28;20060;-82
2021/11/12 23:01:27;;;;;;;8.63;2.00;;;13.70;99.90;;;;;;5055504;28;20021;-83
2021/11/12 23:03:52;;;;;;;8.68;1.70;;;13.70;99.90;;;;;;5055708;28;20388;-83
2021/11/12 23:06:20;;;;;;;6.38;1.50;;;13.70;99.90;;;;;;5057045;28;20040;-82
2021/11/12 23:08:46;;;;;;;7.93;1.50;;;13.60;99.90;;;;;;5056083;28;20100;-83
2021/11/12 23:11:13;;;;;;;6.43;1.55;;;13.60;99.90;;;;;;5056349;28;20021;-82
2021/11/12 23:13:40;;;;;;;14.40;2.13;;;13.60;99.90;;;;;;5055163;28;20028;-82
2021/11/12 23:16:06;;;;;;;4.70;1.83;;;13.70;99.90;;;;;;5053226;28;20474;-82
2021/11/12 23:18:33;;;;;;;6.05;2.40;;;13.70;99.90;;;;;;5056616;28;20603;-82
2021/11/12 23:20:59;;;;;;;6.53;2.55;;;13.70;99.90;;;;;;5053021;28;20029;-82
2021/11/12 23:23:26;;;;;;;6.03;1.88;;;13.60;99.90;;;;;;5070173;28;20025;-82
2021/11/12 23:25:52;;;;;;;7.50;2.08;;;13.60;99.90;;;;;;5055033;28;20037;-82
2021/11/12 23:28:18;;;;;;;6.22;1.55;;;13.60;99.90;;;;;;5054367;28;20492;-82
2021/11/12 23:30:44;;;;;;;19.35;2.53;;;13.60;99.90;;;;;;5052957;28;20029;-82
2021/11/12 23:33:10;;;;;;;9.57;2.45;;;13.50;99.90;;;;;;5055881;28;20044;-82
2021/11/12 23:35:36;;;;;;;16.83;2.65;;;13.50;99.90;;;;;;5055072;28;20279;-82
2021/11/12 23:38:01;;;;;;;7.47;2.20;;;13.40;99.90;;;;;;5055739;28;20060;-82
2021/11/12 23:40:27;;;;;;;13.70;2.47;;;13.30;99.90;;;;;;5055953;28;20285;-82
2021/11/12 23:42:53;;;;;;;9.60;2.67;;;13.30;99.90;;;;;;5069848;28;20057;-82
2021/11/12 23:45:22;;;;;;;15.15;3.65;;;13.30;99.90;;;;;;5055649;28;20155;-83
2021/11/12 23:47:48;;;;;;;20.67;3.42;;;13.30;99.90;;;;;;5052568;28;20055;-82
2021/11/12 23:50:16;;;;;;;14.27;2.85;;;13.30;99.90;;;;;;5054469;28;20213;-82
2021/11/12 23:52:42;;;;;;;16.20;3.17;;;13.30;99.90;;;;;;5054675;28;20033;-81
2021/11/12 23:55:10;;;;;;;16.38;3.10;;;13.30;99.90;;;;;;5052605;28;20036;-82
2021/11/12 23:57:36;;;;;;;18.08;2.95;;;13.30;99.90;;;;;;5050668;28;20647;-82
